sensor_id;sensor_type;location;lat;lon;timestamp;P1;durP1;ratioP1;P2;durP2;ratioP2
22107;SDS011;11220;48.812;9.128;2022-07-19T05:42:34;0.70;;;0.70;;
22107;SDS011;11220;48.812;9.128;2022-07-19T05:44:59;0.95;;;0.85;;
22107;SDS011;11220;48.812;9.128;2022-07-19T05:47:25;0.80;;;0.80;;
22107;SDS011;11220;48.812;9.128;2022-07-19T05:49:51;0.88;;;0.65;;
22107;SDS011;11220;48.812;9.128;2022-07-19T05:52:16;0.88;;;0.88;;
22107;SDS011;11220;48.812;9.128;2022-07-19T05:54:42;1.05;;;0.80;;
22107;SDS011;11220;48.812;9.128;2022-07-19T05:57:07;1.27;;;1.00;;
22107;SDS011;11220;48.812;9.128;2022-07-19T05:59:33;0.82;;;0.82;;
22107;SDS011;11220;48.812;9.128;2022-07-19T06:02:00;1.10;;;1.00;;
22107;SDS011;11220;48.812;9.128;2022-07-19T06:04:27;1.33;;;1.10;;
22107;SDS011;11220;48.812;9.128;2022-07-19T06:06:52;0.88;;;0.88;;
22107;SDS011;11220;48.812;9.128;2022-07-19T06:09:18;0.95;;;0.88;;
22107;SDS011;11220;48.812;9.128;2022-07-19T06:11:43;0.77;;;0.77;;
22107;SDS011;11220;48.812;9.128;2022-07-19T06:14:09;1.33;;;1.17;;
22107;SDS011;11220;48.812;9.128;2022-07-19T06:16:35;0.85;;;0.85;;
22107;SDS011;11220;48.812;9.128;2022-07-19T06:19:03;1.17;;;1.00;;
22107;SDS011;11220;48.812;9.128;2022-07-19T06:21:29;1.00;;;1.00;;
22107;SDS011;11220;48.812;9.128;2022-07-19T06:23:54;1.10;;;1.00;;
22107;SDS011;11220;48.812;9.128;2022-07-19T06:26:22;0.80;;;0.80;;
22107;SDS011;11220;48.812;9.128;2022-07-19T06:28:47;1.15;;;0.88;;
22107;SDS011;11220;48.812;9.128;2022-07-19T06:31:14;0.95;;;0.95;;
22107;SDS011;11220;48.812;9.128;2022-07-19T06:33:42;1.20;;;1.10;;
22107;SDS011;11220;48.812;9.128;2022-07-19T06:36:08;1.00;;;0.90;;
22107;SDS011;11220;48.812;9.128;2022-07-19T06:38:34;1.27;;;0.82;;
22107;SDS011;11220;48.812;9.128;2022-07-19T06:41:01;1.17;;;0.90;;
22107;SDS011;11220;48.812;9.128;2022-07-19T06:43:26;1.30;;;1.20;;
22107;SDS011;11220;48.812;9.128;2022-07-19T06:45:52;1.08;;;0.90;;
22107;SDS011;11220;48.812;9.128;2022-07-19T06:48:18;0.70;;;0.70;;
22107;SDS011;11220;48.812;9.128;2022-07-19T06:50:43;1.05;;;0.95;;
22107;SDS011;11220;48.812;9.128;2022-07-19T06:53:09;1.00;;;0.80;;
22107;SDS011;11220;48.812;9.128;2022-07-19T06:55:34;1.00;;;1.00;;
22107;SDS011;11220;48.812;9.128;2022-07-19T06:58:01;1.05;;;0.95;;
22107;SDS011;11220;48.812;9.128;2022-07-19T07:00:26;0.95;;;0.90;;
22107;SDS011;11220;48.812;9.128;2022-07-19T07:02:52;0.70;;;0.70;;
22107;SDS011;11220;48.812;9.128;2022-07-19T07:05:17;1.30;;;1.00;;
22107;SDS011;11220;48.812;9.128;2022-07-19T07:07:43;1.52;;;0.90;;
22107;SDS011;11220;48.812;9.128;2022-07-19T07:10:09;0.80;;;0.80;;
22107;SDS011;11220;48.812;9.128;2022-07-19T07:12:35;0.80;;;0.80;;
22107;SDS011;11220;48.812;9.128;2022-07-19T07:15:14;1.25;;;0.95;;
22107;SDS011;11220;48.812;9.128;2022-07-19T07:17:40;1.00;;;0.93;;
22107;SDS011;11220;48.812;9.128;2022-07-19T07:20:06;1.08;;;1.02;;
22107;SDS011;11220;48.812;9.128;2022-07-19T07:22:33;0.90;;;0.90;;
22107;SDS011;11220;48.812;9.128;2022-07-19T07:24:59;0.80;;;0.80;;
22107;SDS011;11220;48.812;9.128;2022-07-19T07:27:25;1.45;;;1.10;;
22107;SDS011;11220;48.812;9.128;2022-07-19T07:29:50;0.68;;;0.68;;
22107;SDS011;11220;48.812;9.128;2022-07-19T07:32:16;0.80;;;0.80;;
22107;SDS011;11220;48.812;9.128;2022-07-19T07:34:42;0.80;;;0.80;;
22107;SDS011;11220;48.812;9.128;2022-07-19T07:37:08;0.80;;;0.80;;
22107;SDS011;11220;48.812;9.128;2022-07-19T07:39:33;0.90;;;0.68;;
22107;SDS011;11220;48.812;9.128;2022-07-19T07:41:59;1.20;;;0.90;;
22107;SDS011;11220;48.812;9.128;2022-07-19T07:44:25;0.70;;;0.70;;
22107;SDS011;11220;48.812;9.128;2022-07-19T07:46:51;1.08;;;0.93;;
22107;SDS011;11220;48.812;9.128;2022-07-19T07:49:17;0.80;;;0.80;;
22107;SDS011;11220;48.812;9.128;2022-07-19T07:51:43;1.00;;;0.80;;
22107;SDS011;11220;48.812;9.128;2022-07-19T07:54:08;0.63;;;0.63;;
22107;SDS011;11220;48.812;9.128;2022-07-19T07:56:41;0.73;;;0.70;;
22107;SDS011;11220;48.812;9.128;2022-07-19T07:59:07;0.77;;;0.77;;
22107;SDS011;11220;48.812;9.128;2022-07-19T08:01:33;0.98;;;0.88;;
22107;SDS011;11220;48.812;9.128;2022-07-19T08:03:59;1.60;;;0.75;;
22107;SDS011;11220;48.812;9.128;2022-07-19T08:06:25;0.63;;;0.63;;
22107;SDS011;11220;48.812;9.128;2022-07-19T08:08:50;0.73;;;0.73;;
22107;SDS011;11220;48.812;9.128;2022-07-19T08:11:16;0.88;;;0.88;;
22107;SDS011;11220;48.812;9.128;2022-07-19T08:13:41;0.95;;;0.80;;
22107;SDS011;11220;48.812;9.128;2022-07-19T08:16:07;0.68;;;0.60;;
22107;SDS011;11220;48.812;9.128;2022-07-19T08:18:36;0.75;;;0.75;;
22107;SDS011;11220;48.812;9.128;2022-07-19T08:21:08;0.70;;;0.70;;
22107;SDS011;11220;48.812;9.128;2022-07-19T08:23:35;0.77;;;0.77;;
22107;SDS011;11220;48.812;9.128;2022-07-19T08:26:06;0.63;;;0.63;;
22107;SDS011;11220;48.812;9.128;2022-07-19T08:28:37;0.90;;;0.90;;
22107;SDS011;11220;48.812;9.128;2022-07-19T08:33:37;0.80;;;0.75;;
22107;SDS011;11220;48.812;9.128;2022-07-19T08:36:09;0.88;;;0.77;;
22107;SDS011;11220;48.812;9.128;2022-07-19T08:38:39;1.15;;;0.80;;
22107;SDS011;11220;48.812;9.128;2022-07-19T08:41:11;1.10;;;0.75;;
22107;SDS011;11220;48.812;9.128;2022-07-19T08:43:38;0.77;;;0.70;;
22107;SDS011;11220;48.812;9.128;2022-07-19T08:46:14;0.70;;;0.70;;
22107;SDS011;11220;48.812;9.128;2022-07-19T08:48:44;0.77;;;0.60;;
22107;SDS011;11220;48.812;9.128;2022-07-19T08:51:12;0.80;;;0.80;;
22107;SDS011;11220;48.812;9.128;2022-07-19T08:56:11;0.98;;;0.90;;
22107;SDS011;11220;48.812;9.128;2022-07-19T08:58:59;0.88;;;0.70;;
22107;SDS011;11220;48.812;9.128;2022-07-19T09:01:31;0.70;;;0.70;;
22107;SDS011;11220;48.812;9.128;2022-07-19T09:04:11;0.77;;;0.60;;
22107;SDS011;11220;48.812;9.128;2022-07-19T09:07:08;0.50;;;0.50;;
22107;SDS011;11220;48.812;9.128;2022-07-19T09:09:43;0.80;;;0.80;;
22107;SDS011;11220;48.812;9.128;2022-07-19T09:12:12;0.80;;;0.80;;
22107;SDS011;11220;48.812;9.128;2022-07-19T09:14:41;0.70;;;0.70;;
22107;SDS011;11220;48.812;9.128;2022-07-19T09:17:17;0.70;;;0.70;;
22107;SDS011;11220;48.812;9.128;2022-07-19T09:19:45;0.60;;;0.60;;
22107;SDS011;11220;48.812;9.128;2022-07-19T09:22:12;0.65;;;0.65;;
22107;SDS011;11220;48.812;9.128;2022-07-19T09:24:43;0.75;;;0.60;;
22107;SDS011;11220;48.812;9.128;2022-07-19T09:29:40;0.68;;;0.68;;
22107;SDS011;11220;48.812;9.128;2022-07-19T09:32:11;0.70;;;0.60;;
22107;SDS011;11220;48.812;9.128;2022-07-19T09:34:49;0.70;;;0.70;;
22107;SDS011;11220;48.812;9.128;2022-07-19T09:37:24;0.85;;;0.75;;
22107;SDS011;11220;48.812;9.128;2022-07-19T09:39:55;0.70;;;0.60;;
22107;SDS011;11220;48.812;9.128;2022-07-19T09:42:44;0.57;;;0.50;;
22107;SDS011;11220;48.812;9.128;2022-07-19T09:45:10;0.60;;;0.60;;
22107;SDS011;11220;48.812;9.128;2022-07-19T09:47:46;0.77;;;0.60;;
22107;SDS011;11220;48.812;9.128;2022-07-19T09:50:13;0.68;;;0.50;;
22107;SDS011;11220;48.812;9.128;2022-07-19T09:52:42;0.50;;;0.50;;
22107;SDS011;11220;48.812;9.128;2022-07-19T09:55:08;0.70;;;0.70;;
22107;SDS011;11220;48.812;9.128;2022-07-19T09:57:35;1.13;;;0.60;;
22107;SDS011;11220;48.812;9.128;2022-07-19T10:00:04;0.75;;;0.70;;
22107;SDS011;11220;48.812;9.128;2022-07-19T10:02:32;0.75;;;0.75;;
22107;SDS011;11220;48.812;9.128;2022-07-19T10:07:27;1.10;;;0.65;;
22107;SDS011;11220;48.812;9.128;2022-07-19T10:09:53;0.77;;;0.77;;
22107;SDS011;11220;48.812;9.128;2022-07-19T10:12:20;0.70;;;0.70;;
22107;SDS011;11220;48.812;9.128;2022-07-19T10:14:46;0.60;;;0.60;;
22107;SDS011;11220;48.812;9.128;2022-07-19T10:17:20;0.55;;;0.55;;
22107;SDS011;11220;48.812;9.128;2022-07-19T10:20:02;0.70;;;0.70;;
22107;SDS011;11220;48.812;9.128;2022-07-19T10:22:28;0.50;;;0.50;;
22107;SDS011;11220;48.812;9.128;2022-07-19T10:24:56;0.70;;;0.70;;
22107;SDS011;11220;48.812;9.128;2022-07-19T10:27:42;0.85;;;0.50;;
22107;SDS011;11220;48.812;9.128;2022-07-19T10:32:35;0.60;;;0.60;;
22107;SDS011;11220;48.812;9.128;2022-07-19T10:35:21;0.82;;;0.70;;
22107;SDS011;11220;48.812;9.128;2022-07-19T10:37:51;0.70;;;0.60;;
22107;SDS011;11220;48.812;9.128;2022-07-19T10:43:17;0.70;;;0.70;;
22107;SDS011;11220;48.812;9.128;2022-07-19T10:48:40;0.50;;;0.50;;
22107;SDS011;11220;48.812;9.128;2022-07-19T10:51:11;0.57;;;0.57;;
22107;SDS011;11220;48.812;9.128;2022-07-19T10:56:21;0.63;;;0.63;;
22107;SDS011;11220;48.812;9.128;2022-07-19T10:58:50;1.33;;;0.60;;
22107;SDS011;11220;48.812;9.128;2022-07-19T11:01:16;0.70;;;0.60;;
22107;SDS011;11220;48.812;9.128;2022-07-19T11:03:44;0.57;;;0.57;;
22107;SDS011;11220;48.812;9.128;2022-07-19T11:06:20;0.50;;;0.50;;
22107;SDS011;11220;48.812;9.128;2022-07-19T11:08:47;0.50;;;0.50;;
22107;SDS011;11220;48.812;9.128;2022-07-19T11:11:14;0.52;;;0.52;;
22107;SDS011;11220;48.812;9.128;2022-07-19T11:13:43;0.50;;;0.50;;
22107;SDS011;11220;48.812;9.128;2022-07-19T11:16:10;0.70;;;0.60;;
22107;SDS011;11220;48.812;9.128;2022-07-19T11:18:35;0.80;;;0.80;;
22107;SDS011;11220;48.812;9.128;2022-07-19T11:21:02;0.73;;;0.70;;
22107;SDS011;11220;48.812;9.128;2022-07-19T11:23:31;0.63;;;0.63;;
22107;SDS011;11220;48.812;9.128;2022-07-19T11:26:17;0.90;;;0.50;;
22107;SDS011;11220;48.812;9.128;2022-07-19T11:28:46;0.65;;;0.57;;
22107;SDS011;11220;48.812;9.128;2022-07-19T11:33:42;0.68;;;0.60;;
22107;SDS011;11220;48.812;9.128;2022-07-19T11:36:09;0.60;;;0.60;;
22107;SDS011;11220;48.812;9.128;2022-07-19T11:43:43;0.65;;;0.60;;
22107;SDS011;11220;48.812;9.128;2022-07-19T11:46:15;0.43;;;0.40;;
22107;SDS011;11220;48.812;9.128;2022-07-19T11:48:42;0.85;;;0.63;;
22107;SDS011;11220;48.812;9.128;2022-07-19T11:51:09;0.43;;;0.43;;
22107;SDS011;11220;48.812;9.128;2022-07-19T11:53:38;0.60;;;0.60;;
22107;SDS011;11220;48.812;9.128;2022-07-19T11:58:40;0.70;;;0.70;;
22107;SDS011;11220;48.812;9.128;2022-07-19T12:01:07;0.50;;;0.50;;
22107;SDS011;11220;48.812;9.128;2022-07-19T12:03:33;0.60;;;0.50;;
22107;SDS011;11220;48.812;9.128;2022-07-19T12:06:03;0.70;;;0.70;;
22107;SDS011;11220;48.812;9.128;2022-07-19T12:08:31;0.57;;;0.50;;
22107;SDS011;11220;48.812;9.128;2022-07-19T12:11:01;0.70;;;0.70;;
22107;SDS011;11220;48.812;9.128;2022-07-19T12:13:40;0.60;;;0.60;;
22107;SDS011;11220;48.812;9.128;2022-07-19T12:16:10;0.55;;;0.55;;
22107;SDS011;11220;48.812;9.128;2022-07-19T12:18:46;0.60;;;0.60;;
22107;SDS011;11220;48.812;9.128;2022-07-19T12:26:40;0.88;;;0.57;;
22107;SDS011;11220;48.812;9.128;2022-07-19T12:29:36;0.50;;;0.50;;
22107;SDS011;11220;48.812;9.128;2022-07-19T12:32:09;0.60;;;0.60;;
22107;SDS011;11220;48.812;9.128;2022-07-19T12:39:55;0.43;;;0.43;;
22107;SDS011;11220;48.812;9.128;2022-07-19T12:42:21;0.43;;;0.43;;
22107;SDS011;11220;48.812;9.128;2022-07-19T12:44:47;0.50;;;0.45;;
22107;SDS011;11220;48.812;9.128;2022-07-19T12:47:14;0.75;;;0.60;;
22107;SDS011;11220;48.812;9.128;2022-07-19T12:49:44;0.50;;;0.50;;
22107;SDS011;11220;48.812;9.128;2022-07-19T12:52:12;0.70;;;0.70;;
22107;SDS011;11220;48.812;9.128;2022-07-19T12:54:38;0.60;;;0.60;;
22107;SDS011;11220;48.812;9.128;2022-07-19T12:57:03;0.75;;;0.63;;
22107;SDS011;11220;48.812;9.128;2022-07-19T12:59:29;0.50;;;0.50;;
22107;SDS011;11220;48.812;9.128;2022-07-19T13:02:04;1.00;;;0.70;;
22107;SDS011;11220;48.812;9.128;2022-07-19T13:04:38;0.50;;;0.50;;
22107;SDS011;11220;48.812;9.128;2022-07-19T13:07:05;0.40;;;0.40;;
22107;SDS011;11220;48.812;9.128;2022-07-19T13:09:35;0.50;;;0.50;;
22107;SDS011;11220;48.812;9.128;2022-07-19T13:12:01;0.70;;;0.50;;
22107;SDS011;11220;48.812;9.128;2022-07-19T13:14:28;0.60;;;0.55;;
22107;SDS011;11220;48.812;9.128;2022-07-19T13:16:54;0.60;;;0.60;;
22107;SDS011;11220;48.812;9.128;2022-07-19T13:19:23;0.73;;;0.60;;
22107;SDS011;11220;48.812;9.128;2022-07-19T13:21:48;0.70;;;0.57;;
22107;SDS011;11220;48.812;9.128;2022-07-19T13:24:16;0.55;;;0.52;;
22107;SDS011;11220;48.812;9.128;2022-07-19T13:26:42;0.70;;;0.70;;
22107;SDS011;11220;48.812;9.128;2022-07-19T18:24:00;0.60;;;0.60;;
22107;SDS011;11220;48.812;9.128;2022-07-19T18:26:26;0.43;;;0.43;;
22107;SDS011;11220;48.812;9.128;2022-07-19T18:28:52;0.63;;;0.60;;
22107;SDS011;11220;48.812;9.128;2022-07-19T18:31:17;0.60;;;0.60;;
22107;SDS011;11220;48.812;9.128;2022-07-19T18:33:52;0.75;;;0.68;;
22107;SDS011;11220;48.812;9.128;2022-07-19T20:45:59;0.80;;;0.80;;
22107;SDS011;11220;48.812;9.128;2022-07-19T20:48:24;0.98;;;0.88;;
22107;SDS011;11220;48.812;9.128;2022-07-19T20:50:50;1.23;;;1.13;;
22107;SDS011;11220;48.812;9.128;2022-07-19T20:53:16;1.38;;;0.90;;
22107;SDS011;11220;48.812;9.128;2022-07-19T20:55:42;1.85;;;1.15;;
22107;SDS011;11220;48.812;9.128;2022-07-19T20:58:08;1.20;;;0.82;;
22107;SDS011;11220;48.812;9.128;2022-07-19T21:00:34;1.40;;;1.00;;
22107;SDS011;11220;48.812;9.128;2022-07-19T21:03:06;1.10;;;1.00;;
22107;SDS011;11220;48.812;9.128;2022-07-19T21:05:35;1.20;;;1.02;;
22107;SDS011;11220;48.812;9.128;2022-07-19T21:08:01;1.13;;;1.02;;
22107;SDS011;11220;48.812;9.128;2022-07-19T21:10:27;1.27;;;1.00;;
22107;SDS011;11220;48.812;9.128;2022-07-19T21:12:54;1.80;;;1.13;;
22107;SDS011;11220;48.812;9.128;2022-07-19T21:15:20;1.35;;;1.10;;
22107;SDS011;11220;48.812;9.128;2022-07-19T21:17:46;1.10;;;1.00;;
22107;SDS011;11220;48.812;9.128;2022-07-19T21:20:12;1.20;;;1.10;;
22107;SDS011;11220;48.812;9.128;2022-07-19T21:22:40;1.88;;;1.10;;
22107;SDS011;11220;48.812;9.128;2022-07-19T21:25:06;1.20;;;0.90;;
22107;SDS011;11220;48.812;9.128;2022-07-19T21:27:32;1.23;;;1.08;;
22107;SDS011;11220;48.812;9.128;2022-07-19T21:29:58;1.23;;;1.13;;
22107;SDS011;11220;48.812;9.128;2022-07-19T21:32:24;1.45;;;1.10;;
22107;SDS011;11220;48.812;9.128;2022-07-19T21:34:52;1.40;;;1.30;;
22107;SDS011;11220;48.812;9.128;2022-07-19T21:37:18;1.15;;;1.05;;
22107;SDS011;11220;48.812;9.128;2022-07-19T21:39:44;1.30;;;0.95;;
22107;SDS011;11220;48.812;9.128;2022-07-19T21:42:10;1.02;;;0.93;;
22107;SDS011;11220;48.812;9.128;2022-07-19T21:44:35;1.02;;;0.90;;
22107;SDS011;11220;48.812;9.128;2022-07-19T21:47:03;1.10;;;0.93;;
22107;SDS011;11220;48.812;9.128;2022-07-19T21:49:30;1.35;;;1.20;;
22107;SDS011;11220;48.812;9.128;2022-07-19T21:51:56;1.35;;;1.23;;
22107;SDS011;11220;48.812;9.128;2022-07-19T21:54:21;1.45;;;1.35;;
22107;SDS011;11220;48.812;9.128;2022-07-19T21:56:47;1.23;;;1.02;;
22107;SDS011;11220;48.812;9.128;2022-07-19T21:59:12;1.45;;;1.10;;
22107;SDS011;11220;48.812;9.128;2022-07-19T22:01:38;1.50;;;1.23;;
22107;SDS011;11220;48.812;9.128;2022-07-19T22:04:03;1.38;;;0.93;;
22107;SDS011;11220;48.812;9.128;2022-07-19T22:06:32;1.20;;;1.00;;
22107;SDS011;11220;48.812;9.128;2022-07-19T22:08:59;1.10;;;0.95;;
22107;SDS011;11220;48.812;9.128;2022-07-19T22:11:24;1.17;;;0.90;;
22107;SDS011;11220;48.812;9.128;2022-07-19T22:13:50;1.67;;;1.00;;
22107;SDS011;11220;48.812;9.128;2022-07-19T22:16:16;1.13;;;1.02;;
22107;SDS011;11220;48.812;9.128;2022-07-19T22:18:42;1.23;;;1.10;;
22107;SDS011;11220;48.812;9.128;2022-07-19T22:21:07;1.35;;;0.98;;
22107;SDS011;11220;48.812;9.128;2022-07-19T22:23:36;2.27;;;1.30;;
22107;SDS011;11220;48.812;9.128;2022-07-19T22:26:02;2.08;;;1.20;;
22107;SDS011;11220;48.812;9.128;2022-07-19T22:28:27;1.40;;;1.20;;
22107;SDS011;11220;48.812;9.128;2022-07-19T22:30:53;2.08;;;1.30;;
22107;SDS011;11220;48.812;9.128;2022-07-19T22:33:19;1.20;;;1.10;;
22107;SDS011;11220;48.812;9.128;2022-07-19T22:35:44;1.20;;;1.10;;
22107;SDS011;11220;48.812;9.128;2022-07-19T22:38:10;1.50;;;1.23;;
22107;SDS011;11220;48.812;9.128;2022-07-19T22:40:35;2.55;;;1.33;;
22107;SDS011;11220;48.812;9.128;2022-07-19T22:43:01;1.45;;;1.13;;
22107;SDS011;11220;48.812;9.128;2022-07-19T22:45:27;2.30;;;1.30;;
22107;SDS011;11220;48.812;9.128;2022-07-19T22:47:53;1.45;;;1.15;;
22107;SDS011;11220;48.812;9.128;2022-07-19T22:50:19;1.38;;;1.17;;
22107;SDS011;11220;48.812;9.128;2022-07-19T22:52:46;2.08;;;1.50;;
22107;SDS011;11220;48.812;9.128;2022-07-19T22:55:12;1.35;;;1.10;;
22107;SDS011;11220;48.812;9.128;2022-07-19T22:57:38;2.42;;;1.40;;
22107;SDS011;11220;48.812;9.128;2022-07-19T23:00:04;1.73;;;1.40;;
22107;SDS011;11220;48.812;9.128;2022-07-19T23:02:32;1.92;;;1.40;;
22107;SDS011;11220;48.812;9.128;2022-07-19T23:04:58;1.70;;;1.10;;
22107;SDS011;11220;48.812;9.128;2022-07-19T23:10:55;1.52;;;1.40;;
22107;SDS011;11220;48.812;9.128;2022-07-19T23:13:45;1.50;;;1.15;;
